Flight Track Log - Related Links

Times and Time Zones

All times are in EDT time to prevent confusion due to time zone crossing. See the ASA6 flight status page for this flight to view local times or setup timezone preferences in your user account.

Time Position Orientation Groundspeed Altitude Reporting Facility
EDT Latitude Longitude Course Direction KTS MPH feet Rate Location/Type
Wed 04:02:56 PM 33.9333 -118.4464 90° East 182 209 1,700  Level Los Angeles Center
Wed 04:03:58 PM 33.8742 -118.4856 209° Southwest 248 285 3,800 2,400 Climbing Los Angeles Center
Wed 04:05:01 PM 33.8067 -118.4997 190° South 266 306 6,700 2,832 Climbing Los Angeles Center
Wed 04:06:03 PM 33.7156 -118.5050 183° South 293 337 9,700 2,226 Climbing Los Angeles Center
Wed 04:07:05 PM 33.6675 -118.4172 123° Southeast 324 373 11,300 1,403 Climbing Los Angeles Center
Wed 04:08:00 PM 34.1862 -117.6187 90° East  Level Estimated
Wed 04:08:07 PM 33.6417 -118.2983 105° East 376 433 12,600  Level Los Angeles Center
Wed 04:09:09 PM 33.6444 -118.1389 89° East 407 468 15,300 2,323 Climbing Los Angeles Center
Wed 04:10:11 PM 33.6442 -118.0000 90° East 419 482 17,400 1,839 Climbing Los Angeles Center
Wed 04:11:13 PM 33.6439 -117.8542 90° East 436 502 19,100 1,776 Climbing Los Angeles Center
Wed 04:12:16 PM 33.6439 -117.7031 90° East 451 519 21,100 1,824 Climbing Los Angeles Center
Wed 04:13:18 PM 33.6428 -117.5486 90° East 462 532 22,900 1,742 Climbing Los Angeles Center
Wed 04:14:20 PM 33.6419 -117.3589 90° East 476 548 24,700 1,500 Climbing Los Angeles Center
Wed 04:15:22 PM 33.6400 -117.1961 91° East 488 562 26,000 1,452 Climbing Los Angeles Center
Wed 04:16:24 PM 33.6389 -117.0328 90° East 492 566 27,700 1,548 Climbing Los Angeles Center
Wed 04:17:26 PM 33.6367 -116.8703 91° East 491 565 29,200 1,403 Climbing Los Angeles Center
Wed 04:18:28 PM 33.6353 -116.6883 90° East 496 571 30,600 1,452 Climbing Los Angeles Center
Wed 04:19:30 PM 33.6333 -116.5247 91° East 490 564 32,200 1,403 Climbing Los Angeles Center
Wed 04:20:32 PM 33.6317 -116.3619 91° East 487 560 33,500 1,113 Climbing Los Angeles Center
Wed 04:21:34 PM 33.6314 -116.2036 90° East 476 548 34,500 912 Climbing Los Angeles Center
Wed 04:22:37 PM 33.6625 -116.0478 76° East 478 550 35,400 912 Climbing Los Angeles Center
Wed 04:23:39 PM 33.7169 -115.8689 70° East 475 547 36,400 774 Climbing Los Angeles Center
Wed 04:24:41 PM 33.7633 -115.7200 69° East 477 549 37,000 290 Climbing Los Angeles Center
Wed 04:25:43 PM 33.8092 -115.5697 70° East 478 550 37,000  Level Los Angeles Center
Wed 04:26:45 PM 33.8542 -115.4156 71° East 486 559 37,000  Level Los Angeles Center
Wed 04:27:47 PM 33.9014 -115.2636 69° East 485 558 37,000  Level Los Angeles Center
Wed 04:28:49 PM 33.9472 -115.1086 70° East 490 564 37,000  Level Los Angeles Center
Wed 04:29:51 PM 34.0025 -114.9236 70° East 490 564 37,000  Level Los Angeles Center
Wed 04:30:53 PM 34.0494 -114.7694 70° East 490 564 37,000  Level Los Angeles Center
Wed 04:31:55 PM 34.0969 -114.6153 70° East 489 563 37,000  Level Los Angeles Center
Wed 04:32:58 PM 34.1406 -114.4597 71° East 489 563 37,000  Level Los Angeles Center
Wed 04:34:00 PM 34.1869 -114.3056 70° East 490 564 37,000  Level Los Angeles Center
Wed 04:35:10 PM 34.2428 -114.1117 71° East 497 572 37,000  Level Albuquerque Center
Wed 04:36:12 PM 34.2878 -113.9572 71° East 493 567 37,000  Level Albuquerque Center
Wed 04:37:14 PM 34.3322 -113.8028 71° East 490 564 37,000  Level Albuquerque Center
Wed 04:38:16 PM 34.3772 -113.6458 71° East 490 564 37,000  Level Albuquerque Center
Wed 04:39:18 PM 34.4311 -113.4569 71° East 495 570 37,000  Level Albuquerque Center
Wed 04:40:20 PM 34.4767 -113.2978 71° East 493 567 37,000  Level Albuquerque Center
Wed 04:41:22 PM 34.5200 -113.1392 72° East 498 573 37,000  Level Albuquerque Center
Wed 04:42:24 PM 34.5639 -112.9825 71° East 497 572 37,000  Level Albuquerque Center
Wed 04:43:26 PM 34.6069 -112.8256 72° East 496 571 37,000  Level Albuquerque Center
Wed 04:44:28 PM 34.6508 -112.6661 71° East 500 575 37,000  Level Albuquerque Center
Wed 04:45:30 PM 34.7033 -112.4758 71° East 501 577 37,000  Level Albuquerque Center
Wed 04:46:32 PM 34.7381 -112.3233 74° East 504 580 37,000  Level Albuquerque Center
Wed 04:47:33 PM 34.7769 -112.1500 75° East 506 582 37,000  Level Albuquerque Center
Wed 04:48:35 PM 34.8142 -111.9872 74° East 505 581 37,000  Level Albuquerque Center
Wed 04:49:37 PM 34.8514 -111.8225 75° East 508 585 37,000  Level Albuquerque Center
Wed 04:50:39 PM 34.8956 -111.6269 75° East 508 585 37,000  Level Albuquerque Center
Wed 04:51:41 PM 34.9336 -111.4600 74° East 509 586 37,000  Level Albuquerque Center
Wed 04:52:43 PM 34.9694 -111.2942 75° East 507 583 37,000  Level Albuquerque Center
Wed 04:53:45 PM 35.0050 -111.1278 75° East 507 583 37,000  Level Albuquerque Center
Wed 04:54:47 PM 35.0419 -110.9614 75° East 507 583 37,000  Level Albuquerque Center
Wed 04:55:49 PM 35.0811 -110.7814 75° East 507 583 37,000  Level Albuquerque Center
Wed 04:56:51 PM 35.1231 -110.5958 75° East 508 585 37,000  Level Albuquerque Center
Wed 04:57:53 PM 35.1561 -110.4342 76° East 511 588 37,000  Level Albuquerque Center
Wed 04:58:54 PM 35.1956 -110.2450 76° East 514 592 37,000  Level Albuquerque Center
Wed 04:59:56 PM 35.2311 -110.0828 75° East 516 594 37,000  Level Albuquerque Center
Wed 05:00:58 PM 35.2714 -109.8925 75° East 518 596 37,000  Level Albuquerque Center
Wed 05:02:00 PM 35.3036 -109.7253 77° East 524 603 37,000  Level Albuquerque Center
Wed 05:03:02 PM 35.3428 -109.5347 76° East 522 601 37,000  Level Albuquerque Center
Wed 05:04:04 PM 35.3767 -109.3711 76° East 519 597 37,000  Level Albuquerque Center
Wed 05:05:06 PM 35.4144 -109.1817 76° East 516 594 37,000  Level Albuquerque Center
Wed 05:06:08 PM 35.4469 -109.0214 76° East 512 589 37,000  Level Albuquerque Center
Wed 05:07:10 PM 35.4844 -108.8339 76° East 510 587 37,000  Level Albuquerque Center
Wed 05:08:12 PM 35.5167 -108.6742 76° East 509 586 37,000  Level Albuquerque Center
Wed 05:09:14 PM 35.5539 -108.4878 76° East 507 583 37,000  Level Albuquerque Center
Wed 05:10:16 PM 35.5797 -108.3256 79° East 509 586 37,000  Level Albuquerque Center
Wed 05:11:18 PM 35.6022 -108.1325 82° East 511 588 37,000  Level Albuquerque Center
Wed 05:12:20 PM 35.6217 -107.9661 82° East 515 593 37,000  Level Albuquerque Center
Wed 05:13:22 PM 35.6456 -107.7725 81° East 514 592 37,000  Level Albuquerque Center
Wed 05:14:24 PM 35.6658 -107.6061 81° East 515 593 37,000  Level Albuquerque Center
Wed 05:15:26 PM 35.6861 -107.4361 82° East 521 600 37,000  Level Albuquerque Center
Wed 05:16:28 PM 35.7106 -107.2356 81° East 528 608 37,000  Level Albuquerque Center
Wed 05:17:30 PM 35.7311 -107.0619 82° East 535 616 37,000  Level Albuquerque Center
Wed 05:18:32 PM 35.7539 -106.8600 82° East 534 615 37,000  Level Albuquerque Center
Wed 05:19:34 PM 35.7719 -106.6867 83° East 536 617 37,000  Level Albuquerque Center
Wed 05:20:36 PM 35.7956 -106.4864 82° East 539 620 37,000  Level Albuquerque Center
Wed 05:21:38 PM 35.8158 -106.2856 83° East 547 629 37,000  Level Albuquerque Center
Wed 05:22:40 PM 35.8372 -106.1344 80° East 538 619 37,000  Level Albuquerque Center
Wed 05:23:42 PM 35.8614 -105.9128 82° East 541 623 37,000  Level Albuquerque Center
Wed 05:24:44 PM 35.8783 -105.7258 84° East 546 628 37,000  Level Albuquerque Center
Wed 05:25:46 PM 35.9000 -105.5219 82° East 545 627 37,000  Level Albuquerque Center
Wed 05:26:48 PM 35.9239 -105.3358 81° East 544 626 37,000  Level Albuquerque Center
Wed 05:27:50 PM 35.9586 -105.1517 77° East 544 626 37,000  Level Albuquerque Center
Wed 05:28:52 PM 35.9928 -104.9678 77° East 544 626 37,000  Level Albuquerque Center
Wed 05:29:54 PM 36.0244 -104.7853 78° East 540 621 37,000  Level Albuquerque Center
Wed 05:30:56 PM 36.0569 -104.6017 78° East 538 619 37,000  Level Albuquerque Center
Wed 05:31:58 PM 36.0897 -104.4156 78° East 544 626 37,000  Level Albuquerque Center
Wed 05:33:00 PM 36.1217 -104.2311 78° East 542 624 37,000  Level Albuquerque Center
Wed 05:34:02 PM 36.1544 -104.0483 77° East 540 621 37,000  Level Albuquerque Center
Wed 05:35:04 PM 36.1908 -103.8311 78° East 543 625 37,000  Level Albuquerque Center
Wed 05:36:07 PM 36.2217 -103.6450 78° East 546 628 37,000  Level Albuquerque Center
Wed 05:37:09 PM 36.2519 -103.4581 79° East 547 629 37,000  Level Albuquerque Center
Wed 05:38:11 PM 36.2844 -103.2728 78° East 546 628 37,000  Level Albuquerque Center
Wed 05:39:13 PM 36.3131 -103.0856 79° East 547 629 37,000  Level Albuquerque Center
Wed 05:40:15 PM 36.3442 -102.8981 78° East 548 631 37,000  Level Albuquerque Center
Wed 05:41:17 PM 36.3719 -102.7236 79° East 547 629 37,000  Level Albuquerque Center
Wed 05:42:19 PM 36.4067 -102.5028 79° East 544 626 37,000  Level Albuquerque Center
Wed 05:43:21 PM 36.4350 -102.3194 79° East 542 624 37,000  Level Albuquerque Center
Wed 05:44:22 PM 36.4644 -102.1358 79° East 542 624 37,000  Level Albuquerque Center
Wed 05:45:24 PM 36.4919 -101.9517 79° East 542 624 37,000  Level Albuquerque Center
Wed 05:46:26 PM 36.5197 -101.7661 79° East 544 626 37,000  Level Albuquerque Center
Wed 05:47:28 PM 36.5533 -101.5503 79° East 548 631 37,000  Level Albuquerque Center
Wed 05:48:30 PM 36.5789 -101.3703 80° East 552 635 37,000  Level Albuquerque Center
Wed 05:49:17 PM 36.6011 -101.2169 80° East 557 641 37,000  Level Kansas City Center
Wed 05:50:19 PM 36.6278 -101.0336 80° East 562 647 37,000  Level Kansas City Center
Wed 05:51:21 PM 36.6586 -100.8183 80° East 566 651 37,000  Level Kansas City Center
Wed 05:52:24 PM 36.6847 -100.6336 80° East 567 652 37,000  Level Kansas City Center
Wed 05:53:26 PM 36.7144 -100.4194 80° East 566 651 37,000  Level Kansas City Center
Wed 05:54:28 PM 36.7400 -100.2336 80° East 569 655 37,000  Level Kansas City Center
Wed 05:55:30 PM 36.7686 -100.0300 80° East 567 652 37,000  Level Kansas City Center
Wed 05:56:32 PM 36.7944 -99.8350 81° East 567 652 37,000  Level Kansas City Center
Wed 05:57:34 PM 36.8197 -99.6408 81° East 566 651 37,000  Level Kansas City Center
Wed 05:58:36 PM 36.8461 -99.4456 80° East 566 651 37,000  Level Kansas City Center
Wed 05:59:38 PM 36.8764 -99.2083 81° East 571 657 37,000  Level Kansas City Center
Wed 06:00:40 PM 36.9008 -99.0108 81° East 571 657 37,000  Level Kansas City Center
Wed 06:01:42 PM 36.9256 -98.8133 81° East 572 658 37,000  Level Kansas City Center
Wed 06:02:44 PM 36.9492 -98.6150 81° East 572 658 37,000  Level Kansas City Center
Wed 06:03:46 PM 36.9733 -98.4194 81° East 570 656 37,000  Level Kansas City Center
Wed 06:04:48 PM 36.9997 -98.1997 81° East 570 656 37,000  Level Kansas City Center
Wed 06:05:50 PM 37.0225 -98.0064 82° East 568 654 37,000  Level Kansas City Center
Wed 06:06:52 PM 37.0450 -97.8119 82° East 568 654 37,000  Level Kansas City Center
Wed 06:07:54 PM 37.0681 -97.6142 82° East 573 659 37,000  Level Kansas City Center
Wed 06:08:56 PM 37.0906 -97.4167 82° East 576 663 37,000  Level Kansas City Center
Wed 06:09:58 PM 37.1128 -97.2214 82° East 574 661 37,000  Level Kansas City Center
Wed 06:11:00 PM 37.1361 -96.9903 83° East 566 651 37,000  Level Kansas City Center
Wed 06:12:03 PM 37.1575 -96.7933 82° East 570 656 37,000  Level Kansas City Center
Wed 06:13:05 PM 37.1794 -96.5967 82° East 572 658 37,000  Level Kansas City Center
Wed 06:14:07 PM 37.2028 -96.3850 82° East 574 661 37,000  Level Kansas City Center
Wed 06:15:09 PM 37.2231 -96.1867 83° East 572 658 37,000  Level Kansas City Center
Wed 06:16:11 PM 37.2428 -95.9869 83° East 572 658 37,000  Level Kansas City Center
Wed 06:17:13 PM 37.2619 -95.7864 83° East 574 661 37,000  Level Kansas City Center
Wed 06:18:15 PM 37.2819 -95.5847 83° East 576 663 37,000  Level Kansas City Center
Wed 06:19:17 PM 37.3036 -95.3439 83° East 575 662 37,000  Level Kansas City Center
Wed 06:20:19 PM 37.3231 -95.1433 83° East 574 661 37,000  Level Kansas City Center
Wed 06:21:21 PM 37.3417 -94.9414 83° East 578 665 37,000  Level Kansas City Center
Wed 06:22:23 PM 37.3589 -94.7425 84° East 573 659 37,000  Level Kansas City Center
Wed 06:23:25 PM 37.3781 -94.5425 83° East 573 659 37,000  Level Kansas City Center
Wed 06:24:27 PM 37.3964 -94.3433 83° East 571 657 37,000  Level Kansas City Center
Wed 06:25:29 PM 37.4122 -94.1433 84° East 573 659 37,000  Level Kansas City Center
Wed 06:26:31 PM 37.4311 -93.9092 84° East 574 661 37,000  Level Kansas City Center
Wed 06:27:33 PM 37.4475 -93.7106 84° East 572 658 37,000  Level Kansas City Center
Wed 06:28:35 PM 37.4625 -93.5119 85° East 570 656 37,000  Level Kansas City Center
Wed 06:29:37 PM 37.4781 -93.3136 84° East 569 655 37,000  Level Kansas City Center
Wed 06:30:39 PM 37.4925 -93.1153 85° East 569 655 37,000  Level Kansas City Center
Wed 06:31:41 PM 37.5108 -92.8797 84° East 566 651 37,000  Level Kansas City Center
Wed 06:32:43 PM 37.5236 -92.6817 85° East 568 654 37,000  Level Kansas City Center
Wed 06:33:46 PM 37.5378 -92.4839 85° East 569 655 37,000  Level Kansas City Center
Wed 06:34:48 PM 37.5497 -92.2883 86° East 566 651 37,000  Level Kansas City Center
Wed 06:35:50 PM 37.5644 -92.0917 85° East 567 652 37,000  Level Kansas City Center
Wed 06:36:52 PM 37.5778 -91.8956 85° East 566 651 37,000  Level Kansas City Center
Wed 06:37:54 PM 37.5925 -91.6603 85° East 564 649 37,000  Level Kansas City Center
Wed 06:38:56 PM 37.6050 -91.4617 85° East 566 651 37,000  Level Kansas City Center
Wed 06:39:58 PM 37.6172 -91.2650 85° East 566 651 37,000  Level Kansas City Center
Wed 06:41:00 PM 37.6292 -91.0536 86° East 565 650 37,000  Level Kansas City Center
Wed 06:42:02 PM 37.6406 -90.8589 86° East 563 648 37,000  Level Kansas City Center
Wed 06:43:04 PM 37.6500 -90.6628 86° East 563 648 37,000  Level Kansas City Center
Wed 06:44:06 PM 37.6611 -90.4675 86° East 562 647 37,000  Level Kansas City Center
Wed 06:45:08 PM 37.6714 -90.2725 86° East 563 648 37,000  Level Kansas City Center
Wed 06:46:10 PM 37.6828 -90.0372 86° East 563 648 37,000  Level Kansas City Center
Wed 06:47:12 PM 37.6925 -89.8417 86° East 563 648 37,000  Level Kansas City Center
Wed 06:48:14 PM 37.7014 -89.6444 87° East 564 649 37,000  Level Kansas City Center
Wed 06:49:16 PM 37.7100 -89.4497 87° East 563 648 37,000  Level Kansas City Center
Wed 06:50:18 PM 37.7183 -89.2528 87° East 562 647 37,000  Level Kansas City Center
Wed 06:51:20 PM 37.7272 -89.0181 87° East 559 643 37,000  Level Kansas City Center
Wed 06:52:22 PM 37.7350 -88.8217 87° East 559 643 37,000  Level Kansas City Center
Wed 06:53:24 PM 37.7419 -88.6372 87° East 556 640 37,000  Level Kansas City Center
Wed 06:54:26 PM 37.7483 -88.4417 88° East 555 639 37,000  Level Kansas City Center
Wed 06:55:08 PM 37.7550 -88.2858 87° East 556 640 37,000  Level Indianapolis Center
Wed 06:56:10 PM 37.7614 -88.0908 88° East 556 640 37,000  Level Indianapolis Center
Wed 06:57:12 PM 37.7681 -87.8950 87° East 557 641 37,000  Level Indianapolis Center
Wed 06:58:14 PM 37.7731 -87.6994 88° East 555 639 37,000  Level Indianapolis Center
Wed 06:59:16 PM 37.7786 -87.5028 88° East 555 639 37,000  Level Indianapolis Center
Wed 07:00:18 PM 37.7844 -87.2733 88° East 555 639 37,000  Level Indianapolis Center
Wed 07:01:20 PM 37.7886 -87.0789 88° East 557 641 37,000  Level Indianapolis Center
Wed 07:02:22 PM 37.7933 -86.8847 88° East 556 640 37,000  Level Indianapolis Center
Wed 07:03:24 PM 37.7975 -86.6931 88° East 550 633 37,000  Level Indianapolis Center
Wed 07:04:25 PM 37.8019 -86.4847 88° East 556 640 37,000  Level Indianapolis Center
Wed 07:05:27 PM 37.8061 -86.2875 88° East 554 638 37,000  Level Indianapolis Center
Wed 07:06:29 PM 37.8081 -86.0692 89° East 556 640 37,000  Level Indianapolis Center
Wed 07:07:31 PM 37.8114 -85.8714 89° East 560 644 37,000  Level Indianapolis Center
Wed 07:08:33 PM 37.8150 -85.6742 89° East 561 646 37,000  Level Indianapolis Center
Wed 07:09:34 PM 37.8169 -85.4669 89° East 556 640 37,000  Level Indianapolis Center
Wed 07:10:36 PM 37.8181 -85.2731 90° East 553 636 37,000  Level Indianapolis Center
Wed 07:11:38 PM 37.8203 -85.0769 89° East 555 639 37,000  Level Indianapolis Center
Wed 07:12:40 PM 37.8200 -84.8811 90° East 555 639 37,000  Level Indianapolis Center
Wed 07:13:42 PM 37.8206 -84.6875 90° East 553 636 37,000  Level Indianapolis Center
Wed 07:14:43 PM 37.8219 -84.4594 89° East 554 638 37,000  Level Indianapolis Center
Wed 07:15:45 PM 37.8214 -84.2642 90° East 554 638 37,000  Level Indianapolis Center
Wed 07:16:47 PM 37.8217 -84.0686 90° East 554 638 37,000  Level Indianapolis Center
Wed 07:17:49 PM 37.8214 -83.8717 90° East 557 641 37,000  Level Indianapolis Center
Wed 07:18:50 PM 37.8211 -83.6742 90° East 559 643 37,000  Level Indianapolis Center
Wed 07:19:52 PM 37.8203 -83.4772 90° East 557 641 37,000  Level Indianapolis Center
Wed 07:20:54 PM 37.8178 -83.2789 91° East 559 643 37,000  Level Indianapolis Center
Wed 07:21:55 PM 37.8167 -83.0803 90° East 561 646 37,000  Level Indianapolis Center
Wed 07:22:57 PM 37.8150 -82.8486 90° East 561 646 37,000  Level Indianapolis Center
Wed 07:23:59 PM 37.8117 -82.6564 91° East 548 631 37,000  Level Indianapolis Center
Wed 07:25:01 PM 37.8081 -82.4603 91° East 554 638 37,000  Level Indianapolis Center
Wed 07:26:02 PM 37.8044 -82.2639 91° East 555 639 37,000  Level Indianapolis Center
Wed 07:27:04 PM 37.8022 -82.0725 91° East 547 629 37,000  Level Indianapolis Center
Wed 07:28:06 PM 37.7989 -81.8792 91° East 548 631 37,000  Level Indianapolis Center
Wed 07:29:07 PM 37.7942 -81.6844 92° East 552 635 37,000  Level Indianapolis Center
Wed 07:30:09 PM 37.7886 -81.4636 92° East 555 639 37,000  Level Indianapolis Center
Wed 07:31:11 PM 37.7836 -81.2758 92° East 552 635 37,000  Level Indianapolis Center
Wed 07:32:12 PM 37.7953 -81.0906 85° East 547 629 37,000  Level Indianapolis Center
Wed 07:33:14 PM 37.8619 -80.8947 67° East 536 617 37,000  Level Indianapolis Center
Wed 07:34:16 PM 37.9225 -80.7217 66° East 539 620 37,000 -98 Level Indianapolis Center
Wed 07:35:17 PM 37.9811 -80.5461 67° East 542 624 36,800 -522 Descending Indianapolis Center
Wed 07:35:48 PM 38.0047 -80.4806 65° Northeast 536 617 36,200 -1,500 Descending Washington Center
Wed 07:36:45 PM 38.0642 -80.3022 67° East 536 617 34,600 -1,128 Descending Washington Center
Wed 07:37:45 PM 38.1278 -80.1108 67° East 536 617 34,000 -295 Descending Washington Center
Wed 07:38:47 PM 38.1819 -79.9425 68° East 531 611 34,000 -198 Level Washington Center
Wed 07:39:46 PM 38.2381 -79.7714 67° East 526 605 33,600 -655 Descending Washington Center
Wed 07:40:46 PM 38.2964 -79.5947 67° East 526 605 32,700 -942 Descending Washington Center
Wed 07:41:47 PM 38.3500 -79.4228 68° East 526 605 31,700 -1,008 Descending Washington Center
Wed 07:42:45 PM 38.4006 -79.2664 68° East 526 605 30,700 -1,576 Descending Washington Center
Wed 07:43:45 PM 38.4536 -79.0967 68° East 526 605 28,600 -2,115 Descending Washington Center
Wed 07:44:47 PM 38.4919 -78.9208 74° East 520 598 26,400 -2,350 Descending Washington Center
Wed 07:45:45 PM 38.5200 -78.7336 79° East 504 580 23,900 -1,866 Descending Washington Center
Wed 07:46:46 PM 38.5450 -78.5700 79° East 482 555 22,700 -1,587 Descending Washington Center
Wed 07:47:46 PM 38.5697 -78.4144 78° East 459 528 20,700 -2,033 Descending Washington Center
Wed 07:48:47 PM 38.5961 -78.2639 77° East 443 510 18,600 -2,066 Descending Washington Center
Wed 07:49:48 PM 38.6367 -78.1219 70° East 424 488 16,500 -2,085 Descending Washington Center
Wed 07:50:45 PM 38.6811 -77.9906 67° East 413 475 14,500 -1,744 Descending Washington Center
Wed 07:51:45 PM 38.7211 -77.8614 68° East 403 464 13,100 -1,250 Descending Washington Center
Wed 07:52:45 PM 38.7769 -77.7619 54° Northeast 366 421 12,000 -1,190 Descending Washington Center
Wed 07:53:46 PM 38.8306 -77.6914 46° Northeast 329 379 10,700 -1,339 Descending Washington Center
Wed 07:54:46 PM 38.8903 -77.5997 50° Northeast 310 357 9,300 -1,276 Descending Washington Center
Wed 07:55:53 PM 38.9500 -77.5000 52° Northeast 289 333 8,000 -992 Descending Potomac TRACON
Wed 07:56:53 PM 38.9833 -77.4167 63° Northeast 268 308 7,200 -950 Descending Potomac TRACON
Wed 07:57:53 PM 39.0000 -77.3333 76° East 243 280 6,100 -1,143 Descending Potomac TRACON
Wed 07:58:59 PM 39.0333 -77.2500 63° Northeast 209 241 4,800 -1,095 Descending Potomac TRACON
Wed 07:59:59 PM 39.0000 -77.2000 131° Southeast 176 203 3,800 -895 Descending Potomac TRACON
Wed 08:00:53 PM 38.9667 -77.1667 142° Southeast 173 199 3,100 -842 Descending Potomac TRACON
Wed 08:01:53 PM 38.9500 -77.1333 123° Southeast 161 185 2,200 -857 Descending Potomac TRACON
Wed 08:02:59 PM 38.9000 -77.0833 142° Southeast 152 175 1,300 -750 Descending Potomac TRACON
Wed 08:03:53 PM 38.8833 -77.0500 123° Southeast 138 159 700 -667 Descending Potomac TRACON
Wed 08:05:00 PM 38.8519 -77.0377 180° South  Level Estimated
Wed 08:12:00 PM 38.8500 -77.0333 North  Level FlightAware Approximate
Wed 08:13:00 PM 38.8519 -77.0377 North  Level Estimated
Wed 08:14:00 PM 38.8500 -77.0333 North  Level FlightAware Approximate
Wed 08:15:00 PM 38.8519 -77.0377 North  Level Estimated

Login

Don't have an account? Register now (free) for customized features, flight alerts, and more!